sensor_id;sensor_type;location;lat;lon;timestamp;temperature;humidity
18281;DHT22;9266;51.132;17.062;2023-03-23T00:00:07;9.90;1.00
18281;DHT22;9266;51.132;17.062;2023-03-23T00:02:35;9.80;74.70
18281;DHT22;9266;51.132;17.062;2023-03-23T00:05:04;9.80;99.90
18281;DHT22;9266;51.132;17.062;2023-03-23T00:07:34;9.80;99.90
18281;DHT22;9266;51.132;17.062;2023-03-23T00:10:02;9.80;99.90
18281;DHT22;9266;51.132;17.062;2023-03-23T00:12:30;9.90;99.90
18281;DHT22;9266;51.132;17.062;2023-03-23T00:15:03;10.00;1.00
18281;DHT22;9266;51.132;17.062;2023-03-23T00:17:32;10.00;1.00
18281;DHT22;9266;51.132;17.062;2023-03-23T00:20:00;10.00;1.00
18281;DHT22;9266;51.132;17.062;2023-03-23T00:22:30;10.00;1.00
18281;DHT22;9266;51.132;17.062;2023-03-23T00:25:03;10.00;99.90
18281;DHT22;9266;51.132;17.062;2023-03-23T00:27:30;10.10;1.00
18281;DHT22;9266;51.132;17.062;2023-03-23T00:29:57;10.20;99.90
18281;DHT22;9266;51.132;17.062;2023-03-23T00:32:26;10.20;1.00
18281;DHT22;9266;51.132;17.062;2023-03-23T00:34:54;10.20;1.00
18281;DHT22;9266;51.132;17.062;2023-03-23T00:37:21;10.20;1.00
18281;DHT22;9266;51.132;17.062;2023-03-23T00:39:48;10.20;1.00
18281;DHT22;9266;51.132;17.062;2023-03-23T00:42:17;10.30;99.90
18281;DHT22;9266;51.132;17.062;2023-03-23T00:44:44;10.30;16.80
18281;DHT22;9266;51.132;17.062;2023-03-23T00:47:12;10.30;88.60
18281;DHT22;9266;51.132;17.062;2023-03-23T00:49:44;10.20;99.90
18281;DHT22;9266;51.132;17.062;2023-03-23T00:52:13;10.20;99.90
18281;DHT22;9266;51.132;17.062;2023-03-23T00:54:40;10.20;99.90
18281;DHT22;9266;51.132;17.062;2023-03-23T00:57:07;10.20;99.90
18281;DHT22;9266;51.132;17.062;2023-03-23T00:59:35;10.20;99.90
18281;DHT22;9266;51.132;17.062;2023-03-23T01:02:02;10.10;99.90
18281;DHT22;9266;51.132;17.062;2023-03-23T01:04:29;10.10;99.90
18281;DHT22;9266;51.132;17.062;2023-03-23T01:06:58;10.10;99.90
18281;DHT22;9266;51.132;17.062;2023-03-23T01:09:27;10.10;99.90
18281;DHT22;9266;51.132;17.062;2023-03-23T01:11:54;10.10;1.00
18281;DHT22;9266;51.132;17.062;2023-03-23T01:14:22;10.10;1.00
18281;DHT22;9266;51.132;17.062;2023-03-23T01:16:51;10.00;1.00
18281;DHT22;9266;51.132;17.062;2023-03-23T01:19:18;10.00;1.00
18281;DHT22;9266;51.132;17.062;2023-03-23T01:21:45;10.00;1.00
18281;DHT22;9266;51.132;17.062;2023-03-23T01:24:14;10.00;1.00
18281;DHT22;9266;51.132;17.062;2023-03-23T01:26:41;10.00;1.00
18281;DHT22;9266;51.132;17.062;2023-03-23T01:29:08;10.10;1.00
18281;DHT22;9266;51.132;17.062;2023-03-23T01:31:35;10.20;99.90
18281;DHT22;9266;51.132;17.062;2023-03-23T01:34:03;10.20;1.00
18281;DHT22;9266;51.132;17.062;2023-03-23T01:36:30;10.30;1.00
18281;DHT22;9266;51.132;17.062;2023-03-23T01:38:59;10.30;1.00
18281;DHT22;9266;51.132;17.062;2023-03-23T01:41:30;10.40;99.90
18281;DHT22;9266;51.132;17.062;2023-03-23T01:44:00;10.40;1.00
18281;DHT22;9266;51.132;17.062;2023-03-23T01:46:30;10.50;1.00
18281;DHT22;9266;51.132;17.062;2023-03-23T01:49:00;10.50;1.00
18281;DHT22;9266;51.132;17.062;2023-03-23T01:51:33;10.40;1.00
18281;DHT22;9266;51.132;17.062;2023-03-23T01:54:05;10.30;22.20
18281;DHT22;9266;51.132;17.062;2023-03-23T01:56:38;10.30;91.40
18281;DHT22;9266;51.132;17.062;2023-03-23T01:59:07;10.20;65.50
18281;DHT22;9266;51.132;17.062;2023-03-23T02:01:36;10.30;99.90
18281;DHT22;9266;51.132;17.062;2023-03-23T02:04:05;10.20;99.90
18281;DHT22;9266;51.132;17.062;2023-03-23T02:06:33;10.30;98.70
18281;DHT22;9266;51.132;17.062;2023-03-23T02:09:01;10.20;1.00
18281;DHT22;9266;51.132;17.062;2023-03-23T02:11:29;10.20;1.00
18281;DHT22;9266;51.132;17.062;2023-03-23T02:13:57;10.20;1.00
18281;DHT22;9266;51.132;17.062;2023-03-23T02:16:31;10.20;1.00
18281;DHT22;9266;51.132;17.062;2023-03-23T02:19:13;10.30;1.00
18281;DHT22;9266;51.132;17.062;2023-03-23T02:22:13;10.30;1.00
18281;DHT22;9266;51.132;17.062;2023-03-23T02:24:58;10.30;1.00
18281;DHT22;9266;51.132;17.062;2023-03-23T02:27:50;10.30;1.00
18281;DHT22;9266;51.132;17.062;2023-03-23T02:30:49;10.30;1.00
18281;DHT22;9266;51.132;17.062;2023-03-23T02:33:34;10.40;99.90
18281;DHT22;9266;51.132;17.062;2023-03-23T02:36:05;10.40;99.90
18281;DHT22;9266;51.132;17.062;2023-03-23T02:38:39;10.50;99.90
18281;DHT22;9266;51.132;17.062;2023-03-23T02:41:11;10.50;99.90
18281;DHT22;9266;51.132;17.062;2023-03-23T02:43:44;10.50;99.90
18281;DHT22;9266;51.132;17.062;2023-03-23T02:46:13;10.50;99.90
18281;DHT22;9266;51.132;17.062;2023-03-23T02:48:43;10.60;99.90
18281;DHT22;9266;51.132;17.062;2023-03-23T02:51:12;10.60;99.90
18281;DHT22;9266;51.132;17.062;2023-03-23T02:53:41;10.50;99.90
18281;DHT22;9266;51.132;17.062;2023-03-23T02:56:11;10.50;99.90
18281;DHT22;9266;51.132;17.062;2023-03-23T02:58:39;10.60;99.90
18281;DHT22;9266;51.132;17.062;2023-03-23T03:04:13;10.70;99.90
18281;DHT22;9266;51.132;17.062;2023-03-23T03:06:45;10.70;99.90
18281;DHT22;9266;51.132;17.062;2023-03-23T03:09:17;10.60;99.90
18281;DHT22;9266;51.132;17.062;2023-03-23T03:11:50;10.60;99.90
18281;DHT22;9266;51.132;17.062;2023-03-23T03:14:22;10.70;99.90
18281;DHT22;9266;51.132;17.062;2023-03-23T03:16:53;10.90;1.00
18281;DHT22;9266;51.132;17.062;2023-03-23T03:19:26;11.00;1.00
18281;DHT22;9266;51.132;17.062;2023-03-23T03:21:58;11.20;1.00
18281;DHT22;9266;51.132;17.062;2023-03-23T03:24:28;11.30;1.00
18281;DHT22;9266;51.132;17.062;2023-03-23T03:26:57;11.40;99.90
18281;DHT22;9266;51.132;17.062;2023-03-23T03:29:28;11.40;99.90
18281;DHT22;9266;51.132;17.062;2023-03-23T03:31:58;11.50;99.90
18281;DHT22;9266;51.132;17.062;2023-03-23T03:34:27;11.50;79.90
18281;DHT22;9266;51.132;17.062;2023-03-23T03:36:59;11.60;1.00
18281;DHT22;9266;51.132;17.062;2023-03-23T03:39:26;11.70;1.00
18281;DHT22;9266;51.132;17.062;2023-03-23T03:41:54;11.70;1.00
18281;DHT22;9266;51.132;17.062;2023-03-23T03:44:21;11.70;1.00
18281;DHT22;9266;51.132;17.062;2023-03-23T03:46:48;11.70;1.00
18281;DHT22;9266;51.132;17.062;2023-03-23T03:49:15;11.70;1.00
18281;DHT22;9266;51.132;17.062;2023-03-23T03:51:44;11.60;1.00
18281;DHT22;9266;51.132;17.062;2023-03-23T03:54:11;11.60;1.00
18281;DHT22;9266;51.132;17.062;2023-03-23T03:56:38;11.60;1.00
18281;DHT22;9266;51.132;17.062;2023-03-23T03:59:06;11.60;1.00
18281;DHT22;9266;51.132;17.062;2023-03-23T04:01:36;11.60;1.00
18281;DHT22;9266;51.132;17.062;2023-03-23T04:04:04;11.70;1.00
18281;DHT22;9266;51.132;17.062;2023-03-23T04:06:32;11.70;1.00
18281;DHT22;9266;51.132;17.062;2023-03-23T04:09:03;11.70;1.00
18281;DHT22;9266;51.132;17.062;2023-03-23T04:11:33;11.80;1.00
18281;DHT22;9266;51.132;17.062;2023-03-23T04:14:00;11.80;1.00
18281;DHT22;9266;51.132;17.062;2023-03-23T04:16:28;11.80;1.00
18281;DHT22;9266;51.132;17.062;2023-03-23T04:18:56;11.90;1.00
18281;DHT22;9266;51.132;17.062;2023-03-23T04:21:24;11.90;1.00
18281;DHT22;9266;51.132;17.062;2023-03-23T04:23:54;11.90;1.00
18281;DHT22;9266;51.132;17.062;2023-03-23T04:26:26;11.90;1.00
18281;DHT22;9266;51.132;17.062;2023-03-23T04:28:54;11.90;1.00
18281;DHT22;9266;51.132;17.062;2023-03-23T04:31:21;11.90;1.00
18281;DHT22;9266;51.132;17.062;2023-03-23T04:33:50;12.00;1.00
18281;DHT22;9266;51.132;17.062;2023-03-23T04:36:19;12.00;1.00
18281;DHT22;9266;51.132;17.062;2023-03-23T04:38:48;12.10;1.00
18281;DHT22;9266;51.132;17.062;2023-03-23T04:41:16;12.20;1.00
18281;DHT22;9266;51.132;17.062;2023-03-23T04:43:44;12.20;1.00
18281;DHT22;9266;51.132;17.062;2023-03-23T04:46:11;12.30;1.00
18281;DHT22;9266;51.132;17.062;2023-03-23T04:48:43;12.30;1.00
18281;DHT22;9266;51.132;17.062;2023-03-23T04:51:11;12.30;99.90
18281;DHT22;9266;51.132;17.062;2023-03-23T04:53:39;12.30;99.90
18281;DHT22;9266;51.132;17.062;2023-03-23T04:56:07;12.30;99.90
18281;DHT22;9266;51.132;17.062;2023-03-23T04:58:34;12.30;99.90
18281;DHT22;9266;51.132;17.062;2023-03-23T05:01:03;12.30;99.90
18281;DHT22;9266;51.132;17.062;2023-03-23T05:03:30;12.30;99.90
18281;DHT22;9266;51.132;17.062;2023-03-23T05:05:57;12.30;99.90
18281;DHT22;9266;51.132;17.062;2023-03-23T05:08:27;12.30;99.90
18281;DHT22;9266;51.132;17.062;2023-03-23T05:10:58;12.30;99.90
18281;DHT22;9266;51.132;17.062;2023-03-23T05:13:27;12.40;99.90
18281;DHT22;9266;51.132;17.062;2023-03-23T05:15:54;12.50;99.90
18281;DHT22;9266;51.132;17.062;2023-03-23T05:18:23;12.50;99.90
18281;DHT22;9266;51.132;17.062;2023-03-23T05:20:51;12.40;99.90
18281;DHT22;9266;51.132;17.062;2023-03-23T05:23:18;13.50;99.90
18281;DHT22;9266;51.132;17.062;2023-03-23T05:25:53;12.50;99.90
18281;DHT22;9266;51.132;17.062;2023-03-23T05:28:20;12.50;99.90
18281;DHT22;9266;51.132;17.062;2023-03-23T05:30:47;12.60;99.90
18281;DHT22;9266;51.132;17.062;2023-03-23T05:33:14;12.60;99.90
18281;DHT22;9266;51.132;17.062;2023-03-23T05:35:44;12.70;99.90
18281;DHT22;9266;51.132;17.062;2023-03-23T05:38:12;12.80;99.90
18281;DHT22;9266;51.132;17.062;2023-03-23T05:40:40;12.80;99.90
18281;DHT22;9266;51.132;17.062;2023-03-23T05:43:08;12.80;99.90
18281;DHT22;9266;51.132;17.062;2023-03-23T05:45:36;12.90;99.90
18281;DHT22;9266;51.132;17.062;2023-03-23T05:48:04;13.30;99.90
18281;DHT22;9266;51.132;17.062;2023-03-23T05:50:31;13.00;99.90
18281;DHT22;9266;51.132;17.062;2023-03-23T05:53:00;13.00;99.90
18281;DHT22;9266;51.132;17.062;2023-03-23T05:55:28;13.00;99.90
18281;DHT22;9266;51.132;17.062;2023-03-23T05:57:55;13.10;99.90
18281;DHT22;9266;51.132;17.062;2023-03-23T06:00:23;13.10;99.90
18281;DHT22;9266;51.132;17.062;2023-03-23T06:02:53;13.10;99.90
18281;DHT22;9266;51.132;17.062;2023-03-23T06:05:22;13.10;99.90
18281;DHT22;9266;51.132;17.062;2023-03-23T06:07:51;13.10;99.90
18281;DHT22;9266;51.132;17.062;2023-03-23T06:10:20;13.10;99.90
18281;DHT22;9266;51.132;17.062;2023-03-23T06:12:49;13.20;99.90
18281;DHT22;9266;51.132;17.062;2023-03-23T06:15:18;13.30;99.90
18281;DHT22;9266;51.132;17.062;2023-03-23T06:17:46;13.40;98.40
18281;DHT22;9266;51.132;17.062;2023-03-23T06:20:16;13.60;82.00
18281;DHT22;9266;51.132;17.062;2023-03-23T06:22:43;14.00;99.90
18281;DHT22;9266;51.132;17.062;2023-03-23T06:25:10;14.10;77.70
18281;DHT22;9266;51.132;17.062;2023-03-23T06:27:39;14.10;1.00
18281;DHT22;9266;51.132;17.062;2023-03-23T06:30:09;14.20;1.00
18281;DHT22;9266;51.132;17.062;2023-03-23T06:32:38;14.30;1.00
18281;DHT22;9266;51.132;17.062;2023-03-23T06:35:05;14.50;1.00
18281;DHT22;9266;51.132;17.062;2023-03-23T06:37:34;14.80;1.00
18281;DHT22;9266;51.132;17.062;2023-03-23T06:40:02;15.20;1.00
18281;DHT22;9266;51.132;17.062;2023-03-23T06:42:31;15.50;1.00
18281;DHT22;9266;51.132;17.062;2023-03-23T06:44:59;15.90;1.00
18281;DHT22;9266;51.132;17.062;2023-03-23T06:47:27;16.00;1.00
18281;DHT22;9266;51.132;17.062;2023-03-23T06:49:55;15.80;1.00
18281;DHT22;9266;51.132;17.062;2023-03-23T06:52:23;15.90;1.00
18281;DHT22;9266;51.132;17.062;2023-03-23T06:54:50;15.80;1.00
18281;DHT22;9266;51.132;17.062;2023-03-23T06:57:19;15.80;1.00
18281;DHT22;9266;51.132;17.062;2023-03-23T06:59:47;15.70;1.00
18281;DHT22;9266;51.132;17.062;2023-03-23T07:02:15;15.70;1.00
18281;DHT22;9266;51.132;17.062;2023-03-23T07:04:43;15.90;1.00
18281;DHT22;9266;51.132;17.062;2023-03-23T07:07:11;16.20;1.00
18281;DHT22;9266;51.132;17.062;2023-03-23T07:09:40;16.10;1.00
18281;DHT22;9266;51.132;17.062;2023-03-23T07:12:07;16.30;1.00
18281;DHT22;9266;51.132;17.062;2023-03-23T07:14:35;16.20;1.00
18281;DHT22;9266;51.132;17.062;2023-03-23T07:17:03;16.40;1.00
18281;DHT22;9266;51.132;17.062;2023-03-23T07:19:32;16.60;1.00
18281;DHT22;9266;51.132;17.062;2023-03-23T07:21:59;17.00;99.90
18281;DHT22;9266;51.132;17.062;2023-03-23T07:24:26;17.10;99.90
18281;DHT22;9266;51.132;17.062;2023-03-23T07:26:54;16.90;99.90
18281;DHT22;9266;51.132;17.062;2023-03-23T07:29:21;16.60;99.90
18281;DHT22;9266;51.132;17.062;2023-03-23T07:31:48;16.50;99.90
18281;DHT22;9266;51.132;17.062;2023-03-23T07:34:17;16.40;99.90
18281;DHT22;9266;51.132;17.062;2023-03-23T07:36:46;16.40;99.90
18281;DHT22;9266;51.132;17.062;2023-03-23T07:39:13;16.30;99.90
18281;DHT22;9266;51.132;17.062;2023-03-23T07:41:40;16.10;99.90
18281;DHT22;9266;51.132;17.062;2023-03-23T07:44:08;15.90;99.90
18281;DHT22;9266;51.132;17.062;2023-03-23T07:46:35;16.00;99.90
18281;DHT22;9266;51.132;17.062;2023-03-23T07:49:02;16.50;99.90
18281;DHT22;9266;51.132;17.062;2023-03-23T07:51:31;17.10;99.90
18281;DHT22;9266;51.132;17.062;2023-03-23T07:53:59;18.00;99.90
18281;DHT22;9266;51.132;17.062;2023-03-23T07:56:28;19.10;99.90
18281;DHT22;9266;51.132;17.062;2023-03-23T07:58:55;19.60;99.90
18281;DHT22;9266;51.132;17.062;2023-03-23T08:01:22;19.80;99.90
18281;DHT22;9266;51.132;17.062;2023-03-23T08:03:50;18.20;99.90
18281;DHT22;9266;51.132;17.062;2023-03-23T08:06:17;17.30;99.90
18281;DHT22;9266;51.132;17.062;2023-03-23T08:08:44;17.00;99.90
18281;DHT22;9266;51.132;17.062;2023-03-23T08:11:13;16.70;99.90
18281;DHT22;9266;51.132;17.062;2023-03-23T08:13:41;16.50;99.90
18281;DHT22;9266;51.132;17.062;2023-03-23T08:16:08;16.30;99.90
18281;DHT22;9266;51.132;17.062;2023-03-23T08:18:36;16.40;99.90
18281;DHT22;9266;51.132;17.062;2023-03-23T08:21:04;16.40;99.90
18281;DHT22;9266;51.132;17.062;2023-03-23T08:23:32;16.50;99.90
18281;DHT22;9266;51.132;17.062;2023-03-23T08:25:59;16.80;99.90
18281;DHT22;9266;51.132;17.062;2023-03-23T08:28:28;17.10;99.90
18281;DHT22;9266;51.132;17.062;2023-03-23T08:30:54;17.30;99.90
18281;DHT22;9266;51.132;17.062;2023-03-23T08:33:22;17.70;99.90
18281;DHT22;9266;51.132;17.062;2023-03-23T08:35:55;18.10;99.90
18281;DHT22;9266;51.132;17.062;2023-03-23T08:38:22;18.80;99.90
18281;DHT22;9266;51.132;17.062;2023-03-23T08:40:50;19.20;99.90
18281;DHT22;9266;51.132;17.062;2023-03-23T08:43:17;19.20;99.90
18281;DHT22;9266;51.132;17.062;2023-03-23T08:45:46;19.40;99.90
18281;DHT22;9266;51.132;17.062;2023-03-23T08:48:13;19.00;99.90
18281;DHT22;9266;51.132;17.062;2023-03-23T08:50:40;19.30;99.90
18281;DHT22;9266;51.132;17.062;2023-03-23T08:53:07;19.80;99.90
18281;DHT22;9266;51.132;17.062;2023-03-23T08:55:34;20.10;99.90
18281;DHT22;9266;51.132;17.062;2023-03-23T08:58:02;20.20;99.90
18281;DHT22;9266;51.132;17.062;2023-03-23T09:00:30;20.60;99.90
18281;DHT22;9266;51.132;17.062;2023-03-23T09:02:59;20.40;99.90
18281;DHT22;9266;51.132;17.062;2023-03-23T09:05:28;20.60;99.90
18281;DHT22;9266;51.132;17.062;2023-03-23T09:07:57;20.00;99.90
18281;DHT22;9266;51.132;17.062;2023-03-23T09:10:26;19.60;99.90
18281;DHT22;9266;51.132;17.062;2023-03-23T09:12:53;19.40;99.90
18281;DHT22;9266;51.132;17.062;2023-03-23T09:15:22;19.10;99.90
18281;DHT22;9266;51.132;17.062;2023-03-23T09:17:50;18.80;99.90
18281;DHT22;9266;51.132;17.062;2023-03-23T09:20:21;19.00;99.80
18281;DHT22;9266;51.132;17.062;2023-03-23T09:22:50;19.20;99.90
18281;DHT22;9266;51.132;17.062;2023-03-23T09:25:19;18.90;99.90
18281;DHT22;9266;51.132;17.062;2023-03-23T09:27:49;18.80;99.90
18281;DHT22;9266;51.132;17.062;2023-03-23T09:30:19;18.90;99.90
18281;DHT22;9266;51.132;17.062;2023-03-23T09:32:47;18.90;99.90
18281;DHT22;9266;51.132;17.062;2023-03-23T09:35:15;19.00;99.90
18281;DHT22;9266;51.132;17.062;2023-03-23T09:37:45;18.90;99.90
18281;DHT22;9266;51.132;17.062;2023-03-23T09:40:16;18.90;99.90
18281;DHT22;9266;51.132;17.062;2023-03-23T09:43:10;19.00;99.90
18281;DHT22;9266;51.132;17.062;2023-03-23T09:45:46;19.40;99.90
18281;DHT22;9266;51.132;17.062;2023-03-23T09:48:33;19.70;99.90
18281;DHT22;9266;51.132;17.062;2023-03-23T09:51:11;20.30;99.90
18281;DHT22;9266;51.132;17.062;2023-03-23T09:53:43;19.60;99.90
18281;DHT22;9266;51.132;17.062;2023-03-23T09:56:13;19.80;99.90
18281;DHT22;9266;51.132;17.062;2023-03-23T09:58:46;19.80;99.90
18281;DHT22;9266;51.132;17.062;2023-03-23T10:01:20;20.10;99.90
18281;DHT22;9266;51.132;17.062;2023-03-23T10:06:35;20.50;99.90
18281;DHT22;9266;51.132;17.062;2023-03-23T10:09:14;20.50;99.90
18281;DHT22;9266;51.132;17.062;2023-03-23T10:11:50;20.40;99.90
18281;DHT22;9266;51.132;17.062;2023-03-23T10:14:37;20.60;99.90
18281;DHT22;9266;51.132;17.062;2023-03-23T10:17:14;20.60;99.90
18281;DHT22;9266;51.132;17.062;2023-03-23T10:19:47;20.40;97.40
18281;DHT22;9266;51.132;17.062;2023-03-23T10:22:21;20.40;95.90
18281;DHT22;9266;51.132;17.062;2023-03-23T10:24:57;20.60;99.90
18281;DHT22;9266;51.132;17.062;2023-03-23T10:27:32;20.60;90.80
18281;DHT22;9266;51.132;17.062;2023-03-23T10:30:08;20.40;80.90
18281;DHT22;9266;51.132;17.062;2023-03-23T10:32:44;20.20;68.30
18281;DHT22;9266;51.132;17.062;2023-03-23T10:35:17;19.90;63.30
18281;DHT22;9266;51.132;17.062;2023-03-23T10:37:48;19.80;65.40
18281;DHT22;9266;51.132;17.062;2023-03-23T10:40:21;19.80;79.70
18281;DHT22;9266;51.132;17.062;2023-03-23T10:42:51;19.50;55.30
18281;DHT22;9266;51.132;17.062;2023-03-23T10:45:21;19.40;61.00
18281;DHT22;9266;51.132;17.062;2023-03-23T10:47:53;19.20;53.20
18281;DHT22;9266;51.132;17.062;2023-03-23T10:50:24;19.10;57.50
18281;DHT22;9266;51.132;17.062;2023-03-23T10:52:54;18.80;55.40
18281;DHT22;9266;51.132;17.062;2023-03-23T10:55:36;18.60;61.90
18281;DHT22;9266;51.132;17.062;2023-03-23T10:58:06;18.50;68.10
18281;DHT22;9266;51.132;17.062;2023-03-23T11:00:33;18.70;62.50
18281;DHT22;9266;51.132;17.062;2023-03-23T11:03:25;19.10;69.00
18281;DHT22;9266;51.132;17.062;2023-03-23T11:05:56;19.40;51.30
18281;DHT22;9266;51.132;17.062;2023-03-23T11:08:25;19.50;73.30
18281;DHT22;9266;51.132;17.062;2023-03-23T11:10:58;19.60;59.20
18281;DHT22;9266;51.132;17.062;2023-03-23T11:13:30;20.00;90.60
18281;DHT22;9266;51.132;17.062;2023-03-23T11:15:58;20.20;61.80
18281;DHT22;9266;51.132;17.062;2023-03-23T11:18:34;19.90;51.50
18281;DHT22;9266;51.132;17.062;2023-03-23T11:21:03;19.60;68.40
18281;DHT22;9266;51.132;17.062;2023-03-23T11:23:33;19.60;74.00
18281;DHT22;9266;51.132;17.062;2023-03-23T11:26:09;19.70;63.50
18281;DHT22;9266;51.132;17.062;2023-03-23T11:28:42;19.70;36.30
18281;DHT22;9266;51.132;17.062;2023-03-23T11:31:10;19.50;48.90
18281;DHT22;9266;51.132;17.062;2023-03-23T11:33:50;19.50;67.40
18281;DHT22;9266;51.132;17.062;2023-03-23T11:36:18;19.50;54.40
18281;DHT22;9266;51.132;17.062;2023-03-23T11:38:45;19.30;56.40
18281;DHT22;9266;51.132;17.062;2023-03-23T11:41:19;19.10;45.30
18281;DHT22;9266;51.132;17.062;2023-03-23T11:43:46;19.00;47.80
18281;DHT22;9266;51.132;17.062;2023-03-23T11:46:22;19.10;48.20
18281;DHT22;9266;51.132;17.062;2023-03-23T11:48:58;19.20;55.20
18281;DHT22;9266;51.132;17.062;2023-03-23T11:51:31;19.50;80.40
18281;DHT22;9266;51.132;17.062;2023-03-23T11:54:07;19.70;56.00
18281;DHT22;9266;51.132;17.062;2023-03-23T11:56:41;19.50;36.80
18281;DHT22;9266;51.132;17.062;2023-03-23T11:59:11;19.50;46.10
18281;DHT22;9266;51.132;17.062;2023-03-23T12:01:53;19.50;72.30
18281;DHT22;9266;51.132;17.062;2023-03-23T12:04:38;19.40;56.80
18281;DHT22;9266;51.132;17.062;2023-03-23T12:07:41;19.20;53.40
18281;DHT22;9266;51.132;17.062;2023-03-23T12:10:21;19.10;55.00
18281;DHT22;9266;51.132;17.062;2023-03-23T12:13:00;19.00;74.70
18281;DHT22;9266;51.132;17.062;2023-03-23T12:15:35;18.90;69.40
18281;DHT22;9266;51.132;17.062;2023-03-23T12:18:12;18.80;69.10
18281;DHT22;9266;51.132;17.062;2023-03-23T12:20:51;18.70;54.10
18281;DHT22;9266;51.132;17.062;2023-03-23T12:23:24;18.80;56.10
18281;DHT22;9266;51.132;17.062;2023-03-23T12:26:10;18.80;57.40
18281;DHT22;9266;51.132;17.062;2023-03-23T12:31:39;19.00;69.90
18281;DHT22;9266;51.132;17.062;2023-03-23T12:34:16;19.10;68.40
18281;DHT22;9266;51.132;17.062;2023-03-23T12:36:53;19.20;76.60
18281;DHT22;9266;51.132;17.062;2023-03-23T12:39:59;19.10;74.00
18281;DHT22;9266;51.132;17.062;2023-03-23T12:42:42;19.20;83.70
18281;DHT22;9266;51.132;17.062;2023-03-23T12:45:20;19.10;93.40
18281;DHT22;9266;51.132;17.062;2023-03-23T12:47:53;19.00;91.30
18281;DHT22;9266;51.132;17.062;2023-03-23T12:50:27;19.20;95.50
18281;DHT22;9266;51.132;17.062;2023-03-23T12:52:59;19.30;96.70
18281;DHT22;9266;51.132;17.062;2023-03-23T12:55:34;19.20;99.90
18281;DHT22;9266;51.132;17.062;2023-03-23T12:58:05;19.30;96.70
18281;DHT22;9266;51.132;17.062;2023-03-23T13:00:55;19.00;85.70
18281;DHT22;9266;51.132;17.062;2023-03-23T13:03:28;18.90;90.00
18281;DHT22;9266;51.132;17.062;2023-03-23T13:06:02;18.80;95.60
18281;DHT22;9266;51.132;17.062;2023-03-23T13:08:34;18.60;99.60
18281;DHT22;9266;51.132;17.062;2023-03-23T13:11:04;18.60;85.90
18281;DHT22;9266;51.132;17.062;2023-03-23T13:13:44;18.70;98.70
18281;DHT22;9266;51.132;17.062;2023-03-23T13:16:23;18.80;99.90
18281;DHT22;9266;51.132;17.062;2023-03-23T13:19:01;18.90;98.80
18281;DHT22;9266;51.132;17.062;2023-03-23T13:21:31;19.10;99.90
18281;DHT22;9266;51.132;17.062;2023-03-23T13:24:01;19.10;99.90
18281;DHT22;9266;51.132;17.062;2023-03-23T13:26:30;19.00;99.90
18281;DHT22;9266;51.132;17.062;2023-03-23T13:28:59;19.10;99.40
18281;DHT22;9266;51.132;17.062;2023-03-23T13:31:30;19.10;99.90
18281;DHT22;9266;51.132;17.062;2023-03-23T13:34:02;19.00;95.00
18281;DHT22;9266;51.132;17.062;2023-03-23T13:36:31;19.20;94.90
18281;DHT22;9266;51.132;17.062;2023-03-23T13:39:02;19.20;97.20
18281;DHT22;9266;51.132;17.062;2023-03-23T13:41:33;19.20;99.90
18281;DHT22;9266;51.132;17.062;2023-03-23T13:44:25;19.20;99.90
18281;DHT22;9266;51.132;17.062;2023-03-23T13:47:06;19.10;99.70
18281;DHT22;9266;51.132;17.062;2023-03-23T13:49:44;19.00;99.90
18281;DHT22;9266;51.132;17.062;2023-03-23T13:52:17;18.80;94.60
18281;DHT22;9266;51.132;17.062;2023-03-23T13:54:46;18.80;99.90
18281;DHT22;9266;51.132;17.062;2023-03-23T13:57:34;18.80;99.90
18281;DHT22;9266;51.132;17.062;2023-03-23T14:00:32;18.90;99.90
18281;DHT22;9266;51.132;17.062;2023-03-23T14:03:03;18.80;99.90
18281;DHT22;9266;51.132;17.062;2023-03-23T14:05:34;18.60;99.90
18281;DHT22;9266;51.132;17.062;2023-03-23T14:08:09;18.50;99.90
18281;DHT22;9266;51.132;17.062;2023-03-23T14:10:39;18.50;99.90
18281;DHT22;9266;51.132;17.062;2023-03-23T14:13:15;18.30;99.90
18281;DHT22;9266;51.132;17.062;2023-03-23T14:15:44;18.30;99.90
18281;DHT22;9266;51.132;17.062;2023-03-23T14:18:16;18.30;99.90
18281;DHT22;9266;51.132;17.062;2023-03-23T14:20:45;18.10;99.90
18281;DHT22;9266;51.132;17.062;2023-03-23T14:23:17;18.10;99.90
18281;DHT22;9266;51.132;17.062;2023-03-23T14:25:45;18.20;99.90
18281;DHT22;9266;51.132;17.062;2023-03-23T14:28:21;18.20;99.90
18281;DHT22;9266;51.132;17.062;2023-03-23T14:30:52;18.30;99.90
18281;DHT22;9266;51.132;17.062;2023-03-23T14:33:21;18.00;99.90
18281;DHT22;9266;51.132;17.062;2023-03-23T14:35:48;18.10;99.90
18281;DHT22;9266;51.132;17.062;2023-03-23T14:38:17;18.10;99.90
18281;DHT22;9266;51.132;17.062;2023-03-23T14:40:46;18.30;99.90
18281;DHT22;9266;51.132;17.062;2023-03-23T14:43:16;18.50;99.90
18281;DHT22;9266;51.132;17.062;2023-03-23T14:45:51;18.70;99.90
18281;DHT22;9266;51.132;17.062;2023-03-23T14:48:18;18.90;99.90
18281;DHT22;9266;51.132;17.062;2023-03-23T14:50:51;18.70;99.90
18281;DHT22;9266;51.132;17.062;2023-03-23T14:53:22;18.80;99.90
18281;DHT22;9266;51.132;17.062;2023-03-23T14:55:51;18.70;99.90
18281;DHT22;9266;51.132;17.062;2023-03-23T14:58:21;18.60;99.90
18281;DHT22;9266;51.132;17.062;2023-03-23T15:00:53;18.50;99.90
18281;DHT22;9266;51.132;17.062;2023-03-23T15:03:22;18.60;99.90
18281;DHT22;9266;51.132;17.062;2023-03-23T15:05:53;18.50;99.90
18281;DHT22;9266;51.132;17.062;2023-03-23T15:08:24;18.40;99.90
18281;DHT22;9266;51.132;17.062;2023-03-23T15:11:05;18.40;99.90
18281;DHT22;9266;51.132;17.062;2023-03-23T15:13:32;18.40;99.90
18281;DHT22;9266;51.132;17.062;2023-03-23T15:16:12;18.30;99.90
18281;DHT22;9266;51.132;17.062;2023-03-23T15:18:40;18.40;99.90
18281;DHT22;9266;51.132;17.062;2023-03-23T15:21:23;17.30;99.90
18281;DHT22;9266;51.132;17.062;2023-03-23T15:23:51;18.30;99.90
18281;DHT22;9266;51.132;17.062;2023-03-23T15:26:25;18.10;99.90
18281;DHT22;9266;51.132;17.062;2023-03-23T15:29:02;18.20;99.90
18281;DHT22;9266;51.132;17.062;2023-03-23T15:31:29;18.30;99.90
18281;DHT22;9266;51.132;17.062;2023-03-23T15:33:59;18.30;99.90
18281;DHT22;9266;51.132;17.062;2023-03-23T15:36:31;18.30;99.90
18281;DHT22;9266;51.132;17.062;2023-03-23T15:38:59;18.40;99.90
18281;DHT22;9266;51.132;17.062;2023-03-23T15:41:28;18.40;99.90
18281;DHT22;9266;51.132;17.062;2023-03-23T15:43:57;18.30;99.90
18281;DHT22;9266;51.132;17.062;2023-03-23T15:46:25;18.10;99.90
18281;DHT22;9266;51.132;17.062;2023-03-23T15:49:04;18.00;99.90
18281;DHT22;9266;51.132;17.062;2023-03-23T15:51:33;17.90;99.90
18281;DHT22;9266;51.132;17.062;2023-03-23T15:54:01;17.80;99.90
18281;DHT22;9266;51.132;17.062;2023-03-23T15:56:29;17.70;99.90
18281;DHT22;9266;51.132;17.062;2023-03-23T15:58:57;17.60;99.90
18281;DHT22;9266;51.132;17.062;2023-03-23T16:01:28;17.50;99.90
18281;DHT22;9266;51.132;17.062;2023-03-23T16:03:57;17.50;99.90
18281;DHT22;9266;51.132;17.062;2023-03-23T16:06:27;17.50;99.90